Time;durP1;ratioP1;P1;durP2;ratioP2;P2;SDS_P1;SDS_P2;PMS_P1;PMS_P2;Temp;Humidity;BMP_temperature;BMP_pressure;BME280_temperature;BME280_humidity;BME280_pressure;Samples;Min_cycle;Max_cycle;Signal;HPM_P1;HPM_P2
2021/08/28 00:01:38;;;;;;;3.33;1.05;;;20.20;61.10;;;;;;5052476;28;20053;-71
2021/08/28 00:04:03;;;;;;;1.67;0.57;;;20.20;61.10;;;;;;5052614;28;20025;-71
2021/08/28 00:06:29;;;;;;;2.22;0.73;;;20.20;61.10;;;;;;5052540;28;20054;-71
2021/08/28 00:08:55;;;;;;;2.42;0.85;;;20.20;61.20;;;;;;5051294;28;20017;-70
2021/08/28 00:11:21;;;;;;;2.63;1.00;;;20.20;61.20;;;;;;5052582;28;20469;-70
2021/08/28 00:13:47;;;;;;;3.80;1.00;;;20.20;61.20;;;;;;5052813;28;20021;-70
2021/08/28 00:16:12;;;;;;;1.30;0.70;;;20.20;61.20;;;;;;5051131;28;20047;-71
2021/08/28 00:18:38;;;;;;;4.15;1.10;;;20.20;61.20;;;;;;5052836;28;20041;-71
2021/08/28 00:21:04;;;;;;;3.08;0.80;;;20.10;61.20;;;;;;5056480;28;20455;-71
2021/08/28 00:23:30;;;;;;;3.45;0.90;;;20.20;61.20;;;;;;5055060;28;20029;-71
2021/08/28 00:25:55;;;;;;;2.80;0.93;;;20.20;61.20;;;;;;5056237;28;20455;-71
2021/08/28 00:28:21;;;;;;;2.95;1.10;;;20.10;61.30;;;;;;5056136;28;20020;-70
2021/08/28 00:30:46;;;;;;;3.38;1.02;;;20.10;61.30;;;;;;5056075;28;20055;-71
2021/08/28 00:33:14;;;;;;;3.00;0.80;;;20.10;61.30;;;;;;5056478;28;20060;-71
2021/08/28 00:35:40;;;;;;;3.13;1.30;;;20.10;61.30;;;;;;5056046;28;20059;-71
2021/08/28 00:38:06;;;;;;;4.18;1.10;;;20.10;61.30;;;;;;5054409;28;20077;-71
2021/08/28 00:40:34;;;;;;;3.10;1.10;;;20.10;61.40;;;;;;5055974;28;20032;-71
2021/08/28 00:43:00;;;;;;;2.13;0.80;;;20.10;61.40;;;;;;5055901;28;20116;-71
2021/08/28 00:45:31;;;;;;;3.55;1.10;;;20.10;61.40;;;;;;5055964;28;20063;-71
2021/08/28 00:48:02;;;;;;;2.35;0.90;;;20.10;61.40;;;;;;5056201;28;20061;-70
2021/08/28 00:50:29;;;;;;;2.55;0.77;;;20.10;61.40;;;;;;5056473;28;20025;-70
2021/08/28 00:52:55;;;;;;;2.15;0.88;;;20.10;61.40;;;;;;5057746;28;20025;-72
2021/08/28 00:55:26;;;;;;;2.75;1.00;;;20.10;61.40;;;;;;5056607;28;20021;-71
2021/08/28 00:57:53;;;;;;;2.17;0.80;;;20.10;61.40;;;;;;5055781;28;20025;-70
2021/08/28 01:00:19;;;;;;;3.00;1.00;;;20.10;61.40;;;;;;5055518;28;20111;-70
2021/08/28 01:02:47;;;;;;;2.97;1.05;;;20.10;61.40;;;;;;5054382;28;20087;-70
2021/08/28 01:05:39;;;;;;;3.70;1.27;;;20.10;61.40;;;;;;5055669;28;20035;-70
2021/08/28 01:08:18;;;;;;;4.75;1.00;;;20.10;61.40;;;;;;5055781;28;20021;-70
2021/08/28 01:10:56;;;;;;;3.03;1.33;;;20.10;61.50;;;;;;5053952;28;20040;-71
2021/08/28 01:13:23;;;;;;;5.63;1.15;;;20.00;61.40;;;;;;5054047;28;20021;-71
2021/08/28 01:15:52;;;;;;;2.22;1.00;;;20.10;61.40;;;;;;5054047;28;20021;-71
2021/08/28 01:18:20;;;;;;;1.80;0.80;;;20.10;61.50;;;;;;5055337;28;20064;-72
2021/08/28 01:21:11;;;;;;;5.32;1.27;;;20.00;61.50;;;;;;5055381;28;20044;-71
2021/08/28 01:23:38;;;;;;;3.67;1.13;;;20.00;61.50;;;;;;5055399;28;20025;-70
2021/08/28 01:26:12;;;;;;;3.42;1.30;;;20.00;61.50;;;;;;5055271;28;20346;-69
2021/08/28 01:28:45;;;;;;;2.45;1.17;;;20.00;61.50;;;;;;5055030;28;20039;-71
2021/08/28 01:31:11;;;;;;;2.53;1.03;;;20.00;61.50;;;;;;5054621;28;20491;-71
2021/08/28 01:33:38;;;;;;;4.22;1.40;;;20.00;61.50;;;;;;5054916;28;20283;-71
2021/08/28 01:36:05;;;;;;;5.18;1.40;;;20.00;61.50;;;;;;5054654;28;20447;-71
2021/08/28 01:38:30;;;;;;;3.38;1.23;;;20.00;61.50;;;;;;5054731;28;20041;-71
2021/08/28 01:40:56;;;;;;;3.25;1.10;;;20.00;61.50;;;;;;5054782;28;20074;-71
2021/08/28 01:43:22;;;;;;;3.25;1.35;;;20.00;61.50;;;;;;5054795;28;20449;-71
2021/08/28 01:45:49;;;;;;;3.03;1.30;;;20.00;61.60;;;;;;5054747;28;20044;-71
2021/08/28 01:48:16;;;;;;;2.63;1.38;;;20.00;61.60;;;;;;5054673;28;20033;-71
2021/08/28 01:50:42;;;;;;;4.00;1.55;;;20.00;61.50;;;;;;5054669;28;20025;-71
2021/08/28 01:53:08;;;;;;;3.65;1.30;;;20.00;61.50;;;;;;5053224;28;20404;-71
2021/08/28 01:55:34;;;;;;;3.42;1.30;;;20.00;61.60;;;;;;5053282;28;20104;-71
2021/08/28 01:57:59;;;;;;;3.95;1.20;;;20.00;61.60;;;;;;5054513;28;20041;-71
2021/08/28 02:00:25;;;;;;;4.15;1.40;;;20.00;61.60;;;;;;5054598;28;20267;-71
2021/08/28 02:02:51;;;;;;;4.25;1.60;;;20.00;61.60;;;;;;5054442;28;20044;-71
2021/08/28 02:05:16;;;;;;;3.08;1.25;;;20.00;61.60;;;;;;5054335;28;20021;-70
2021/08/28 02:08:03;;;;;;;2.67;1.30;;;20.00;61.60;;;;;;5054301;28;20025;-71
2021/08/28 02:10:41;;;;;;;3.42;1.48;;;20.00;61.60;;;;;;5054070;28;20039;-71
2021/08/28 02:13:25;;;;;;;3.63;1.48;;;20.00;61.60;;;;;;5054276;28;20501;-71
2021/08/28 02:15:53;;;;;;;3.50;1.52;;;20.00;61.60;;;;;;5054208;28;20021;-71
2021/08/28 02:18:32;;;;;;;2.88;1.35;;;20.00;61.60;;;;;;5053998;28;20094;-71
2021/08/28 02:21:01;;;;;;;4.40;1.60;;;20.00;61.60;;;;;;5054197;28;20044;-70
2021/08/28 02:23:49;;;;;;;4.30;1.67;;;20.00;61.60;;;;;;5053981;28;20025;-71
2021/08/28 02:26:22;;;;;;;3.92;1.42;;;20.00;61.70;;;;;;5053901;28;20025;-71
2021/08/28 02:29:01;;;;;;;5.28;1.88;;;20.00;61.60;;;;;;5053824;28;20017;-71
2021/08/28 02:31:33;;;;;;;4.55;1.70;;;20.00;61.60;;;;;;5053795;28;20051;-71
2021/08/28 02:34:00;;;;;;;3.58;1.42;;;20.00;61.60;;;;;;5053780;28;20021;-70
2021/08/28 02:36:27;;;;;;;5.07;1.98;;;19.90;61.60;;;;;;5053465;28;20056;-70
2021/08/28 02:38:53;;;;;;;5.30;1.60;;;20.00;61.70;;;;;;5053540;28;20380;-70
2021/08/28 02:41:21;;;;;;;4.63;1.60;;;20.00;61.70;;;;;;5051921;28;20025;-70
2021/08/28 02:43:47;;;;;;;5.35;2.03;;;19.90;61.70;;;;;;5053447;28;20051;-70
2021/08/28 02:46:14;;;;;;;3.78;1.63;;;20.00;61.70;;;;;;5053740;28;20049;-70
2021/08/28 02:48:41;;;;;;;4.55;1.92;;;20.00;61.70;;;;;;5053342;28;20029;-70
2021/08/28 02:51:10;;;;;;;4.40;1.67;;;19.90;61.70;;;;;;5053338;28;20112;-69
2021/08/28 02:53:45;;;;;;;4.30;1.90;;;19.90;61.70;;;;;;5053589;28;20055;-70
2021/08/28 02:56:11;;;;;;;4.97;2.00;;;19.90;61.70;;;;;;5053251;28;20188;-71
2021/08/28 02:58:37;;;;;;;3.60;1.70;;;20.00;61.70;;;;;;5053589;28;20048;-71
2021/08/28 03:01:05;;;;;;;4.38;1.75;;;20.00;61.70;;;;;;5053314;28;20479;-71
2021/08/28 03:03:32;;;;;;;5.60;1.80;;;19.90;61.70;;;;;;5053249;28;20102;-70
2021/08/28 03:05:57;;;;;;;3.72;1.58;;;20.00;61.70;;;;;;5053128;28;20025;-70
2021/08/28 03:08:23;;;;;;;3.65;1.60;;;19.90;61.70;;;;;;5053260;28;20032;-70
2021/08/28 03:10:51;;;;;;;5.30;1.75;;;20.00;61.70;;;;;;5051922;28;20587;-70
2021/08/28 03:13:17;;;;;;;4.55;1.98;;;19.90;61.70;;;;;;5053040;28;20021;-71
2021/08/28 03:15:45;;;;;;;4.28;1.60;;;19.90;61.70;;;;;;5053060;28;20025;-70
2021/08/28 03:18:12;;;;;;;4.85;1.95;;;19.90;61.70;;;;;;5052913;28;20033;-70
2021/08/28 03:20:39;;;;;;;5.13;1.77;;;19.90;61.70;;;;;;5051722;28;20108;-70
2021/08/28 03:23:05;;;;;;;5.10;1.88;;;19.90;61.70;;;;;;5052999;28;20350;-70
2021/08/28 03:25:32;;;;;;;4.18;1.88;;;20.00;61.70;;;;;;5052925;28;20017;-70
2021/08/28 03:27:57;;;;;;;4.13;1.65;;;19.90;61.70;;;;;;5052967;28;20380;-70
2021/08/28 03:30:24;;;;;;;5.50;1.80;;;20.00;61.70;;;;;;5053120;28;20025;-70
2021/08/28 03:32:51;;;;;;;5.07;1.77;;;19.90;61.70;;;;;;5052702;28;20016;-69
2021/08/28 03:35:17;;;;;;;4.82;1.92;;;19.90;61.70;;;;;;5052808;28;20380;-70
2021/08/28 03:37:43;;;;;;;6.07;1.90;;;19.90;61.80;;;;;;5052479;28;20506;-70
2021/08/28 03:40:10;;;;;;;4.25;1.65;;;19.90;61.80;;;;;;5052754;28;20095;-70
2021/08/28 03:42:40;;;;;;;5.35;1.92;;;19.90;61.80;;;;;;5052672;28;20108;-70
2021/08/28 03:45:09;;;;;;;5.68;2.30;;;19.90;61.80;;;;;;5052742;28;20092;-71
2021/08/28 03:47:37;;;;;;;5.35;2.00;;;19.90;61.80;;;;;;5051170;28;20029;-71
2021/08/28 03:50:05;;;;;;;4.05;1.70;;;19.90;61.80;;;;;;5052664;28;20032;-71
2021/08/28 03:52:30;;;;;;;4.18;1.55;;;19.90;61.80;;;;;;5052823;28;20078;-71
2021/08/28 03:54:56;;;;;;;5.57;2.03;;;19.90;61.80;;;;;;5056751;28;20032;-71
2021/08/28 03:57:21;;;;;;;3.85;1.73;;;19.90;61.80;;;;;;5056653;28;20104;-71
2021/08/28 03:59:47;;;;;;;5.55;1.90;;;19.90;61.80;;;;;;5056918;28;20407;-71
2021/08/28 04:02:12;;;;;;;5.53;2.00;;;19.90;61.80;;;;;;5056578;28;20021;-71
2021/08/28 04:04:38;;;;;;;3.97;1.75;;;19.90;61.80;;;;;;5056600;28;20031;-71
2021/08/28 04:07:03;;;;;;;4.40;2.13;;;19.90;61.80;;;;;;5056525;28;20485;-71
2021/08/28 04:09:29;;;;;;;4.63;1.85;;;19.90;61.80;;;;;;5056516;28;20029;-71
2021/08/28 04:11:54;;;;;;;5.57;2.03;;;19.90;61.80;;;;;;5056503;28;20523;-71
2021/08/28 04:14:20;;;;;;;5.32;2.00;;;19.90;61.80;;;;;;5056328;28;20033;-71
2021/08/28 04:16:45;;;;;;;7.07;2.17;;;19.90;61.90;;;;;;5056198;28;20074;-70
2021/08/28 04:19:11;;;;;;;4.22;1.90;;;19.80;61.90;;;;;;5056209;28;20150;-70
2021/08/28 04:21:36;;;;;;;7.13;1.88;;;19.80;61.90;;;;;;5056275;28;20519;-70
2021/08/28 04:24:02;;;;;;;4.10;1.83;;;19.80;62.00;;;;;;5056212;28;20025;-70
2021/08/28 04:26:28;;;;;;;5.35;2.15;;;19.80;62.00;;;;;;5056185;28;20032;-70
2021/08/28 04:28:55;;;;;;;4.68;2.10;;;19.80;62.00;;;;;;5056193;28;20028;-70
2021/08/28 04:31:21;;;;;;;5.60;2.20;;;19.80;62.00;;;;;;5056026;28;20021;-69
2021/08/28 04:33:47;;;;;;;5.15;2.05;;;19.80;62.00;;;;;;5056044;28;20032;-70
2021/08/28 04:36:12;;;;;;;4.40;1.88;;;19.80;62.00;;;;;;5055852;28;20067;-70
2021/08/28 04:38:38;;;;;;;5.00;2.10;;;19.80;62.00;;;;;;5055921;28;20041;-70
2021/08/28 04:41:03;;;;;;;4.30;1.90;;;19.80;62.00;;;;;;5055849;28;20022;-70
2021/08/28 04:43:29;;;;;;;3.88;1.55;;;19.80;62.00;;;;;;5055819;28;20048;-70
2021/08/28 04:45:54;;;;;;;5.40;2.17;;;19.80;62.10;;;;;;5055847;28;20021;-70
2021/08/28 04:48:20;;;;;;;4.90;2.17;;;19.80;62.10;;;;;;5055830;28;20464;-70
2021/08/28 04:50:46;;;;;;;4.63;2.15;;;19.80;62.10;;;;;;5056037;28;20520;-70
2021/08/28 04:53:11;;;;;;;5.05;2.20;;;19.80;62.20;;;;;;5055705;28;20025;-71
2021/08/28 04:55:37;;;;;;;4.07;1.80;;;19.80;62.20;;;;;;5055596;28;20465;-70
2021/08/28 04:58:03;;;;;;;3.97;1.95;;;19.80;62.20;;;;;;5055770;28;20496;-70
2021/08/28 05:00:28;;;;;;;5.20;1.95;;;19.70;62.20;;;;;;5055544;28;20025;-70
2021/08/28 05:02:54;;;;;;;4.55;1.90;;;19.70;62.30;;;;;;5055748;28;20021;-70
2021/08/28 05:05:19;;;;;;;3.65;1.55;;;19.70;62.20;;;;;;5054997;28;20377;-70
2021/08/28 05:07:45;;;;;;;5.25;2.38;;;19.80;62.30;;;;;;5055460;28;20037;-70
2021/08/28 05:10:10;;;;;;;5.20;2.03;;;19.70;62.30;;;;;;5055323;28;20022;-71
2021/08/28 05:12:36;;;;;;;5.38;2.15;;;19.70;62.30;;;;;;5055302;28;20040;-71
2021/08/28 05:15:02;;;;;;;3.20;1.50;;;19.80;62.30;;;;;;5055218;28;20087;-71
2021/08/28 05:17:28;;;;;;;4.65;2.10;;;19.70;62.30;;;;;;5055215;28;20421;-71
2021/08/28 05:19:54;;;;;;;4.72;1.98;;;19.70;62.30;;;;;;5055190;28;20021;-70
2021/08/28 05:22:20;;;;;;;4.72;2.30;;;19.70;62.30;;;;;;5055043;28;20409;-71
2021/08/28 05:24:45;;;;;;;6.05;2.15;;;19.70;62.30;;;;;;5055206;28;20087;-72
2021/08/28 05:27:11;;;;;;;4.45;1.88;;;19.70;62.30;;;;;;5055336;28;20531;-71
2021/08/28 05:29:36;;;;;;;3.80;1.73;;;19.70;62.30;;;;;;5053768;28;20029;-71
2021/08/28 05:32:02;;;;;;;4.20;2.03;;;19.80;62.30;;;;;;5055175;28;20024;-71
2021/08/28 05:34:27;;;;;;;4.25;1.88;;;19.70;62.30;;;;;;5054875;28;20104;-71
2021/08/28 05:36:53;;;;;;;5.38;1.98;;;19.70;62.30;;;;;;5054625;28;20403;-71
2021/08/28 05:39:18;;;;;;;3.92;1.70;;;19.70;62.30;;;;;;5054819;28;20029;-71
2021/08/28 05:41:44;;;;;;;4.18;1.80;;;19.80;62.30;;;;;;5053550;28;20021;-71
2021/08/28 05:44:09;;;;;;;3.55;1.83;;;19.70;62.30;;;;;;5054761;28;20051;-71
2021/08/28 05:46:35;;;;;;;5.07;1.92;;;19.70;62.30;;;;;;5054719;28;20412;-71
2021/08/28 05:49:00;;;;;;;5.00;2.20;;;19.70;62.30;;;;;;5054644;28;20028;-71
2021/08/28 05:51:26;;;;;;;3.95;2.05;;;19.80;62.30;;;;;;5054553;28;20527;-71
2021/08/28 05:53:51;;;;;;;4.68;1.88;;;19.80;62.30;;;;;;5054550;28;20025;-71
2021/08/28 05:56:17;;;;;;;7.10;1.88;;;19.80;62.30;;;;;;5054608;28;20036;-71
2021/08/28 05:58:42;;;;;;;4.07;1.92;;;19.70;62.30;;;;;;5053166;28;20492;-71
2021/08/28 06:01:08;;;;;;;4.10;2.00;;;19.80;62.30;;;;;;5054341;28;20071;-71
2021/08/28 06:03:33;;;;;;;4.55;2.20;;;19.70;62.30;;;;;;5053161;28;20041;-70
2021/08/28 06:05:59;;;;;;;4.10;1.65;;;19.70;62.30;;;;;;5053042;28;20108;-71
2021/08/28 06:08:25;;;;;;;3.92;1.73;;;19.70;62.30;;;;;;5054286;28;20014;-71
2021/08/28 06:10:50;;;;;;;5.30;2.05;;;19.80;62.30;;;;;;5054145;28;20048;-71
2021/08/28 06:13:16;;;;;;;3.83;1.77;;;19.80;62.30;;;;;;5054105;28;20029;-70
2021/08/28 06:15:41;;;;;;;4.63;1.98;;;19.80;62.30;;;;;;5053850;28;20420;-71
2021/08/28 06:18:07;;;;;;;3.80;1.88;;;19.80;62.30;;;;;;5053165;28;20067;-71
2021/08/28 06:20:32;;;;;;;4.80;1.95;;;19.80;62.30;;;;;;5053960;28;20384;-71
2021/08/28 06:22:58;;;;;;;4.60;2.25;;;19.80;62.20;;;;;;5054046;28;20029;-71
2021/08/28 06:25:24;;;;;;;5.15;2.20;;;19.80;62.20;;;;;;5054002;28;20025;-71
2021/08/28 06:27:49;;;;;;;4.13;1.88;;;19.80;62.20;;;;;;5053916;28;20473;-70
2021/08/28 06:30:15;;;;;;;3.75;1.80;;;19.80;62.20;;;;;;5053624;28;20370;-71
2021/08/28 06:32:40;;;;;;;5.28;1.90;;;19.80;62.20;;;;;;5053751;28;20104;-71
2021/08/28 06:35:06;;;;;;;3.85;1.65;;;19.80;62.10;;;;;;5053758;28;20040;-71
2021/08/28 06:37:31;;;;;;;3.35;1.50;;;19.80;62.10;;;;;;5053406;28;20044;-71
2021/08/28 06:39:57;;;;;;;4.13;1.60;;;19.80;62.20;;;;;;5053953;28;20020;-71
2021/08/28 06:42:22;;;;;;;5.18;2.00;;;19.80;62.20;;;;;;5053590;28;20025;-70
2021/08/28 06:44:48;;;;;;;4.32;1.77;;;19.80;62.20;;;;;;5053616;28;20488;-71
2021/08/28 06:47:13;;;;;;;6.07;2.20;;;19.80;62.20;;;;;;5053783;28;20021;-71
2021/08/28 06:49:39;;;;;;;4.53;1.85;;;19.80;62.20;;;;;;5053532;28;20078;-71
2021/08/28 06:52:05;;;;;;;4.32;1.85;;;19.80;62.20;;;;;;5053503;28;20455;-71
2021/08/28 06:54:30;;;;;;;4.43;1.63;;;19.80;62.30;;;;;;5053440;28;20098;-71
2021/08/28 06:56:56;;;;;;;3.97;1.85;;;19.80;62.20;;;;;;5053344;28;20029;-71
2021/08/28 06:59:21;;;;;;;6.25;2.00;;;19.80;62.20;;;;;;5053825;28;20033;-71
2021/08/28 07:01:47;;;;;;;4.53;2.00;;;19.80;62.30;;;;;;5053290;28;20033;-71
2021/08/28 07:04:12;;;;;;;4.25;1.70;;;19.80;62.30;;;;;;5053110;28;20389;-71
2021/08/28 07:06:38;;;;;;;6.20;2.10;;;19.80;62.20;;;;;;5053196;28;20380;-71
2021/08/28 07:09:03;;;;;;;4.03;1.70;;;19.80;62.20;;;;;;5053307;28;20476;-71
2021/08/28 07:11:30;;;;;;;4.85;1.90;;;19.80;62.20;;;;;;5053602;28;20482;-71
2021/08/28 07:13:55;;;;;;;3.72;1.63;;;19.80;62.20;;;;;;5053058;28;20534;-71
2021/08/28 07:16:21;;;;;;;4.70;2.05;;;19.90;62.20;;;;;;5053058;28;20029;-71
2021/08/28 07:18:46;;;;;;;3.92;1.90;;;19.90;62.20;;;;;;5052890;28;20029;-71
2021/08/28 07:21:13;;;;;;;6.97;1.92;;;19.80;62.20;;;;;;5053011;28;20083;-71
2021/08/28 07:23:39;;;;;;;6.63;2.15;;;19.90;62.20;;;;;;5052921;28;20033;-71
2021/08/28 07:26:05;;;;;;;4.30;1.67;;;19.80;62.20;;;;;;5052971;28;20100;-71
2021/08/28 07:28:30;;;;;;;4.30;1.58;;;19.90;62.20;;;;;;5051119;28;20025;-71
2021/08/28 07:30:56;;;;;;;3.58;1.55;;;19.90;62.10;;;;;;5052833;28;20060;-71
2021/08/28 07:33:22;;;;;;;5.13;1.92;;;19.90;62.20;;;;;;5052776;28;20021;-71
2021/08/28 07:35:47;;;;;;;4.32;1.80;;;19.80;62.20;;;;;;5051495;28;20496;-71
2021/08/28 07:38:14;;;;;;;4.50;1.70;;;19.90;62.20;;;;;;5051273;28;20061;-71
2021/08/28 07:40:39;;;;;;;5.72;1.95;;;19.90;62.10;;;;;;5052660;28;20362;-71
2021/08/28 07:43:05;;;;;;;4.68;2.08;;;19.80;62.20;;;;;;5052539;28;20029;-71
2021/08/28 07:45:30;;;;;;;3.55;1.40;;;19.90;62.20;;;;;;5052739;28;20021;-70
2021/08/28 07:47:56;;;;;;;4.88;1.70;;;19.90;62.20;;;;;;5052791;28;20067;-71
2021/08/28 07:50:22;;;;;;;3.72;1.63;;;19.90;62.20;;;;;;5052640;28;20021;-71
2021/08/28 07:52:47;;;;;;;4.20;1.70;;;19.90;62.00;;;;;;5052589;28;20130;-71
2021/08/28 07:55:13;;;;;;;5.32;2.00;;;19.90;62.10;;;;;;5052777;28;20013;-71
2021/08/28 07:57:40;;;;;;;5.97;1.88;;;19.90;62.00;;;;;;5052387;28;20037;-71
2021/08/28 08:00:07;;;;;;;4.60;2.15;;;19.90;61.90;;;;;;5052418;28;20036;-71
2021/08/28 08:02:33;;;;;;;3.95;1.77;;;20.00;61.90;;;;;;5052331;28;20477;-71
2021/08/28 08:04:58;;;;;;;4.75;1.88;;;20.00;61.70;;;;;;5052458;28;20060;-71
2021/08/28 08:07:24;;;;;;;5.32;1.90;;;20.00;61.60;;;;;;5052486;28;20384;-71
2021/08/28 08:09:49;;;;;;;3.83;1.60;;;20.10;61.50;;;;;;5052455;28;20025;-71
2021/08/28 08:12:15;;;;;;;3.92;1.77;;;20.10;61.50;;;;;;5052399;28;20028;-73
2021/08/28 08:14:41;;;;;;;3.22;1.52;;;20.10;61.40;;;;;;5052371;28;20029;-71
2021/08/28 08:17:06;;;;;;;5.57;1.90;;;20.10;61.40;;;;;;5052345;28;20025;-71
2021/08/28 08:19:32;;;;;;;4.15;1.90;;;20.10;61.40;;;;;;5052077;28;20036;-73
2021/08/28 08:21:58;;;;;;;3.15;1.55;;;20.10;61.50;;;;;;5052281;28;20115;-71
2021/08/28 08:24:24;;;;;;;4.10;1.50;;;20.10;61.50;;;;;;5052237;28;20112;-71
2021/08/28 08:26:49;;;;;;;3.85;1.70;;;20.10;61.50;;;;;;5052287;28;20036;-71
2021/08/28 08:29:15;;;;;;;3.92;1.83;;;20.10;61.60;;;;;;5052450;28;20433;-71
2021/08/28 08:31:40;;;;;;;4.65;2.10;;;20.20;61.50;;;;;;5052136;28;20029;-70
2021/08/28 08:34:06;;;;;;;3.80;1.40;;;20.10;61.50;;;;;;5052097;28;20018;-71
2021/08/28 08:36:31;;;;;;;4.88;2.08;;;20.10;61.40;;;;;;5051763;28;20049;-71
2021/08/28 08:38:57;;;;;;;5.20;2.00;;;20.10;61.50;;;;;;5052110;28;20036;-71
2021/08/28 08:41:24;;;;;;;6.55;1.95;;;20.20;61.50;;;;;;5054999;28;20017;-70
2021/08/28 08:43:53;;;;;;;3.67;1.80;;;20.20;61.40;;;;;;5056019;28;20037;-71
2021/08/28 08:46:22;;;;;;;3.88;1.95;;;20.20;61.40;;;;;;5055664;28;20021;-70
2021/08/28 08:48:48;;;;;;;3.33;1.58;;;20.20;61.40;;;;;;5055628;28;20040;-71
2021/08/28 08:51:16;;;;;;;4.47;1.73;;;20.20;61.50;;;;;;5054390;28;20074;-71
2021/08/28 08:53:41;;;;;;;4.75;1.95;;;20.10;61.60;;;;;;5055471;28;20021;-71
2021/08/28 08:56:07;;;;;;;4.38;1.70;;;20.10;61.70;;;;;;5055547;28;20087;-71
2021/08/28 08:58:33;;;;;;;6.38;1.85;;;20.10;61.70;;;;;;5055499;28;20044;-71
2021/08/28 09:01:02;;;;;;;3.63;1.70;;;20.20;61.70;;;;;;5055768;28;20025;-71
2021/08/28 09:03:28;;;;;;;4.25;1.80;;;20.20;61.70;;;;;;5055397;28;20032;-71
2021/08/28 09:05:54;;;;;;;4.22;1.80;;;20.20;61.60;;;;;;5055341;28;20017;-71
2021/08/28 09:08:19;;;;;;;4.78;2.20;;;20.20;61.60;;;;;;5055269;28;20420;-71
2021/08/28 09:10:45;;;;;;;4.28;2.00;;;20.20;61.60;;;;;;5055322;28;20021;-71
2021/08/28 09:13:15;;;;;;;4.32;1.75;;;20.20;61.60;;;;;;5055034;28;20107;-70
2021/08/28 09:15:54;;;;;;;4.38;1.83;;;20.20;61.60;;;;;;5055167;28;20024;-71
2021/08/28 09:18:20;;;;;;;4.65;1.80;;;20.20;61.60;;;;;;5053841;28;20128;-72
2021/08/28 09:20:45;;;;;;;5.60;1.77;;;20.20;61.60;;;;;;5053933;28;20117;-70
2021/08/28 09:23:16;;;;;;;3.55;1.70;;;20.20;61.60;;;;;;5055225;28;20385;-71
2021/08/28 09:25:44;;;;;;;3.28;1.75;;;20.20;61.60;;;;;;5055480;28;20021;-72
2021/08/28 09:28:10;;;;;;;5.45;2.10;;;20.30;61.60;;;;;;5053804;28;20036;-72
2021/08/28 09:30:43;;;;;;;4.68;1.98;;;20.30;61.60;;;;;;5055174;28;20025;-72
2021/08/28 09:33:11;;;;;;;3.53;1.67;;;20.30;61.70;;;;;;5055014;28;20028;-70
2021/08/28 09:35:39;;;;;;;4.50;1.80;;;20.20;61.70;;;;;;5054684;28;20024;-70
2021/08/28 09:38:07;;;;;;;3.10;1.58;;;20.20;61.70;;;;;;5054637;28;20053;-70
2021/08/28 09:40:35;;;;;;;4.00;1.80;;;20.20;61.80;;;;;;5055007;28;20032;-70
2021/08/28 09:43:04;;;;;;;3.58;1.75;;;20.20;61.80;;;;;;5054738;28;20415;-72
2021/08/28 09:45:30;;;;;;;4.50;1.67;;;20.20;61.80;;;;;;5053418;28;20380;-70
2021/08/28 09:47:56;;;;;;;4.82;1.77;;;20.20;61.70;;;;;;5054462;28;20021;-71
2021/08/28 09:50:31;;;;;;;2.80;1.50;;;20.20;61.80;;;;;;5054293;28;20025;-71
2021/08/28 09:53:06;;;;;;;4.40;1.80;;;20.20;61.80;;;;;;5054339;28;20032;-70
2021/08/28 09:55:33;;;;;;;3.72;1.77;;;20.20;61.90;;;;;;5054379;28;20474;-70
2021/08/28 09:58:00;;;;;;;3.75;1.65;;;20.20;61.80;;;;;;5054151;28;20036;-70
2021/08/28 10:00:28;;;;;;;4.47;1.90;;;20.20;61.80;;;;;;5054232;28;20021;-70
2021/08/28 10:02:58;;;;;;;5.13;1.95;;;20.20;61.80;;;;;;5054121;28;20036;-70
2021/08/28 10:05:25;;;;;;;4.20;1.90;;;20.20;61.80;;;;;;5054087;28;20395;-72
2021/08/28 10:07:54;;;;;;;4.05;2.00;;;20.20;61.80;;;;;;5054068;28;20037;-71
2021/08/28 10:10:19;;;;;;;4.70;2.00;;;20.20;61.80;;;;;;5052804;28;20017;-70
2021/08/28 10:12:45;;;;;;;4.60;2.10;;;20.20;61.80;;;;;;5052608;28;20032;-71
2021/08/28 10:15:12;;;;;;;4.32;1.92;;;20.20;61.80;;;;;;5053902;28;20032;-71
2021/08/28 10:17:40;;;;;;;3.03;1.58;;;20.20;61.80;;;;;;5053693;28;20043;-71
2021/08/28 10:20:06;;;;;;;2.67;1.50;;;20.20;61.80;;;;;;5053904;28;20060;-72
2021/08/28 10:22:35;;;;;;;5.15;1.83;;;20.20;61.80;;;;;;5053849;28;20025;-72
2021/08/28 10:25:05;;;;;;;4.97;1.63;;;20.20;61.80;;;;;;5053906;28;20017;-72
2021/08/28 10:27:31;;;;;;;4.90;1.85;;;20.20;61.80;;;;;;5053665;28;20388;-71
2021/08/28 10:29:57;;;;;;;2.83;1.48;;;20.20;61.90;;;;;;5053712;28;20029;-71
2021/08/28 10:32:22;;;;;;;3.15;1.60;;;20.20;61.90;;;;;;5053622;28;20063;-71
2021/08/28 10:34:49;;;;;;;3.85;1.90;;;20.20;61.90;;;;;;5052450;28;20021;-71
2021/08/28 10:37:14;;;;;;;3.35;1.60;;;20.20;61.90;;;;;;5053390;28;20100;-71
2021/08/28 10:39:41;;;;;;;4.13;1.75;;;20.20;61.80;;;;;;5053616;28;20125;-72
2021/08/28 10:42:10;;;;;;;5.07;1.98;;;20.20;61.80;;;;;;5053506;28;20074;-71
2021/08/28 10:44:36;;;;;;;4.50;1.92;;;20.20;61.80;;;;;;5053480;28;20040;-71
2021/08/28 10:47:11;;;;;;;3.10;1.60;;;20.30;61.80;;;;;;5053441;28;20025;-71
2021/08/28 10:49:41;;;;;;;6.03;2.05;;;20.30;61.80;;;;;;5053547;28;20029;-71
2021/08/28 10:52:16;;;;;;;3.95;1.65;;;20.30;61.80;;;;;;5053445;28;20025;-71
2021/08/28 10:54:42;;;;;;;4.85;1.77;;;20.30;61.70;;;;;;5053678;28;20029;-71
2021/08/28 10:57:19;;;;;;;3.50;1.70;;;20.30;61.80;;;;;;5053180;28;20430;-71
2021/08/28 10:59:45;;;;;;;2.53;1.33;;;20.30;61.70;;;;;;5053234;28;20025;-71
2021/08/28 11:02:14;;;;;;;3.53;1.55;;;20.40;61.80;;;;;;5052847;28;20021;-71
2021/08/28 11:04:45;;;;;;;3.72;2.00;;;20.30;61.80;;;;;;5052649;28;20036;-72
2021/08/28 11:07:18;;;;;;;4.32;1.52;;;20.30;61.80;;;;;;5053051;28;20033;-71
2021/08/28 11:10:02;;;;;;;3.55;1.80;;;20.40;61.90;;;;;;5053258;28;20028;-72
2021/08/28 11:12:27;;;;;;;3.92;1.73;;;20.30;61.90;;;;;;5053065;28;20477;-71
2021/08/28 11:14:53;;;;;;;3.35;1.52;;;20.30;62.00;;;;;;5053042;28;20108;-72
2021/08/28 11:17:36;;;;;;;3.95;1.50;;;20.30;62.10;;;;;;5053123;28;20112;-72
2021/08/28 11:20:03;;;;;;;4.72;1.88;;;20.40;62.20;;;;;;5052945;28;20484;-71
2021/08/28 11:22:36;;;;;;;3.00;1.38;;;20.40;61.90;;;;;;5052890;28;20558;-71
2021/08/28 11:25:05;;;;;;;6.53;2.00;;;20.50;61.90;;;;;;5052856;28;20424;-71
2021/08/28 11:27:43;;;;;;;4.35;1.90;;;20.50;61.80;;;;;;5052774;28;20021;-72
2021/08/28 11:30:10;;;;;;;4.05;1.85;;;20.50;61.80;;;;;;5052812;28;20013;-72
2021/08/28 11:32:36;;;;;;;3.88;1.65;;;20.60;61.60;;;;;;5053263;28;20031;-71
2021/08/28 11:35:02;;;;;;;3.80;1.63;;;20.60;61.50;;;;;;5052648;28;20108;-72
2021/08/28 11:37:28;;;;;;;4.28;1.48;;;20.70;61.40;;;;;;5052395;28;20041;-71
2021/08/28 11:39:57;;;;;;;3.55;1.67;;;20.60;61.60;;;;;;5052638;28;20025;-72
2021/08/28 11:42:23;;;;;;;4.97;1.77;;;20.60;61.60;;;;;;5052696;28;20028;-71
2021/08/28 11:44:50;;;;;;;3.92;1.77;;;20.60;61.60;;;;;;5052356;28;20025;-71
2021/08/28 11:47:16;;;;;;;4.13;1.75;;;20.60;61.60;;;;;;5052465;28;20491;-71
2021/08/28 11:49:42;;;;;;;5.05;1.80;;;20.60;61.60;;;;;;5052358;28;20053;-71
2021/08/28 11:52:07;;;;;;;2.95;1.55;;;20.60;61.60;;;;;;5052393;28;20025;-71
2021/08/28 11:54:34;;;;;;;3.63;1.67;;;20.60;61.60;;;;;;5052585;28;20091;-71
2021/08/28 11:57:00;;;;;;;3.53;1.48;;;20.70;61.50;;;;;;5052446;28;20422;-71
2021/08/28 11:59:36;;;;;;;3.83;1.65;;;20.70;61.40;;;;;;5052435;28;20385;-72
2021/08/28 12:02:03;;;;;;;3.63;1.60;;;20.80;61.40;;;;;;5052730;28;20032;-72
2021/08/28 12:04:32;;;;;;;3.47;1.70;;;20.70;61.30;;;;;;5052381;28;20354;-70
2021/08/28 12:06:58;;;;;;;5.35;1.90;;;20.80;61.30;;;;;;5052449;28;20036;-70
2021/08/28 12:09:25;;;;;;;3.17;1.67;;;20.80;61.30;;;;;;5052286;28;20111;-70
2021/08/28 12:11:52;;;;;;;3.05;1.58;;;20.90;61.20;;;;;;5052363;28;20028;-70
2021/08/28 12:14:19;;;;;;;4.03;1.70;;;20.90;61.20;;;;;;5053684;28;20029;-72
2021/08/28 12:16:46;;;;;;;2.75;1.23;;;20.90;61.10;;;;;;5056144;28;20389;-71
2021/08/28 12:19:19;;;;;;;4.30;1.88;;;21.00;60.90;;;;;;5056411;28;20032;-70
2021/08/28 12:21:50;;;;;;;3.78;1.80;;;21.00;60.90;;;;;;5056526;28;20017;-69
2021/08/28 12:24:29;;;;;;;3.42;1.60;;;21.00;60.90;;;;;;5056152;28;20033;-72
2021/08/28 12:26:56;;;;;;;3.75;1.50;;;21.00;61.00;;;;;;5056139;28;20028;-72
2021/08/28 12:29:22;;;;;;;3.97;1.75;;;21.00;61.00;;;;;;5056122;28;20108;-72
2021/08/28 12:32:12;;;;;;;3.80;1.90;;;21.00;61.00;;;;;;5056002;28;20025;-72
2021/08/28 12:34:43;;;;;;;2.97;1.60;;;21.00;61.10;;;;;;5056065;28;20027;-70
2021/08/28 12:37:15;;;;;;;2.88;1.50;;;21.00;61.10;;;;;;5055845;28;20103;-72
2021/08/28 12:39:43;;;;;;;3.65;1.55;;;20.90;61.20;;;;;;5055934;28;20469;-71
2021/08/28 12:42:13;;;;;;;3.38;1.60;;;20.90;61.20;;;;;;5056030;28;20025;-71
2021/08/28 12:44:42;;;;;;;3.78;1.80;;;21.00;61.20;;;;;;5055819;28;20104;-71
2021/08/28 12:47:10;;;;;;;3.90;1.77;;;20.90;61.20;;;;;;5055637;28;20017;-70
2021/08/28 12:49:36;;;;;;;3.25;1.45;;;20.90;61.20;;;;;;5056160;28;20025;-72